createdAt,value
2018-04-19T00:00:19.659Z,102970.88
2018-04-19T00:02:45.405Z,102970.41
2018-04-19T00:05:11.171Z,102970.87
2018-04-19T00:07:36.923Z,102977.48
2018-04-19T00:10:02.669Z,102977.05
2018-04-19T00:12:28.432Z,102972.64
2018-04-19T00:14:54.198Z,102972.64
2018-04-19T00:17:19.936Z,102972.61
2018-04-19T00:19:45.680Z,102966.41
2018-04-19T00:22:11.460Z,102971.67
2018-04-19T00:24:37.188Z,102966.30
2018-04-19T00:27:02.935Z,102964.11
2018-04-19T00:29:28.711Z,102949.94
2018-04-19T00:31:54.449Z,102952.56
2018-04-19T00:34:20.208Z,102961.80
2018-04-19T00:36:45.952Z,102964.88
2018-04-19T00:39:11.713Z,102961.33
2018-04-19T00:41:37.465Z,102961.78
2018-04-19T00:44:03.230Z,102954.23
2018-04-19T00:46:28.976Z,102953.80
2018-04-19T00:48:54.741Z,102948.95
2018-04-19T00:51:20.482Z,102950.66
2018-04-19T00:53:46.249Z,102949.34
2018-04-19T00:56:12.000Z,102940.52
2018-04-19T00:58:37.744Z,102942.64
2018-04-19T01:01:03.490Z,102944.41
2018-04-19T01:03:29.245Z,102938.19
2018-04-19T01:05:54.984Z,102939.95
2018-04-19T01:08:20.716Z,102943.97
2018-04-19T01:10:46.456Z,102937.80
2018-04-19T01:13:12.226Z,102936.89
2018-04-19T01:15:37.984Z,102928.50
2018-04-19T01:18:03.732Z,102926.73
2018-04-19T01:20:29.501Z,102924.58
2018-04-19T01:22:55.237Z,102924.59
2018-04-19T01:25:20.988Z,102923.26
2018-04-19T01:27:46.727Z,102919.72
2018-04-19T01:30:12.471Z,102919.70
2018-04-19T01:32:38.208Z,102923.66
2018-04-19T01:35:03.954Z,102928.50
2018-04-19T01:37:29.693Z,102927.52
2018-04-19T01:39:55.460Z,102928.39
2018-04-19T01:42:21.197Z,102927.46
2018-04-19T01:44:46.960Z,102924.53
2018-04-19T01:47:12.706Z,102915.69
2018-04-19T01:49:38.456Z,102918.79
2018-04-19T01:52:04.218Z,102910.35
2018-04-19T01:54:29.944Z,102918.78
2018-04-19T01:56:55.685Z,102916.97
2018-04-19T01:59:21.409Z,102924.42
2018-04-19T02:01:47.160Z,102927.50
2018-04-19T02:04:12.900Z,102933.19
2018-04-19T02:06:38.653Z,102928.81
2018-04-19T02:09:04.400Z,102919.59
2018-04-19T02:11:30.152Z,102923.67
2018-04-19T02:13:55.901Z,102919.23
2018-04-19T02:16:21.648Z,102922.75
2018-04-19T02:18:47.381Z,102916.55
2018-04-19T02:21:13.116Z,102916.12
2018-04-19T02:23:38.849Z,102918.78
2018-04-19T02:26:04.599Z,102917.90
2018-04-19T02:28:30.345Z,102913.03
2018-04-19T02:30:56.080Z,102907.70
2018-04-19T02:33:21.817Z,102910.28
2018-04-19T02:35:47.602Z,102909.45
2018-04-19T02:38:13.334Z,102912.58
2018-04-19T02:40:39.069Z,102914.31
2018-04-19T02:43:04.811Z,102911.18
2018-04-19T02:45:30.556Z,102911.55
2018-04-19T02:47:56.296Z,102908.42
2018-04-19T02:50:22.048Z,102910.63
2018-04-19T02:52:47.791Z,102910.18
2018-04-19T02:55:13.526Z,102912.41
2018-04-19T02:57:39.275Z,102908.88
2018-04-19T03:00:05.024Z,102909.71
2018-04-19T03:02:30.768Z,102917.16
2018-04-19T03:04:56.511Z,102912.31
2018-04-19T03:07:22.271Z,102916.30
2018-04-19T03:09:48.020Z,102903.50
2018-04-19T03:12:13.768Z,102904.75
2018-04-19T03:14:39.511Z,102908.64
2018-04-19T03:17:05.258Z,102911.64
2018-04-19T03:19:31.025Z,102913.02
2018-04-19T03:21:56.768Z,102916.09
2018-04-19T03:24:22.531Z,102908.66
2018-04-19T03:26:48.279Z,102917.90
2018-04-19T03:29:14.032Z,102919.33
2018-04-19T03:31:39.775Z,102913.98
2018-04-19T03:34:05.525Z,102910.31
2018-04-19T03:36:31.259Z,102913.31
2018-04-19T03:38:56.997Z,102904.97
2018-04-19T03:41:22.744Z,102911.10
2018-04-19T03:43:48.492Z,102913.84
2018-04-19T03:46:14.233Z,102917.69
2018-04-19T03:48:39.993Z,102915.84
2018-04-19T03:51:05.740Z,102916.23
2018-04-19T03:53:31.485Z,102915.00
2018-04-19T03:55:57.220Z,102914.52
2018-04-19T03:58:22.980Z,102913.20
2018-04-19T04:00:48.724Z,102915.81
2018-04-19T04:03:14.466Z,102909.74
2018-04-19T04:05:40.217Z,102913.27
2018-04-19T04:08:05.949Z,102914.20
2018-04-19T04:10:31.689Z,102908.81
2018-04-19T04:12:57.428Z,102911.37
2018-04-19T04:15:23.185Z,102911.39
2018-04-19T04:18:01.456Z,102911.50
2018-04-19T04:20:39.460Z,102904.05
2018-04-19T04:23:21.580Z,102904.89
2018-04-19T04:25:47.333Z,102911.98
2018-04-19T04:28:13.072Z,102905.91
2018-04-19T04:30:39.608Z,102906.95
2018-04-19T04:33:05.348Z,102912.20
2018-04-19T04:35:31.109Z,102914.37
2018-04-19T04:37:56.856Z,102909.61
2018-04-19T04:40:22.616Z,102912.27
2018-04-19T04:42:48.353Z,102908.34
2018-04-19T04:45:14.091Z,102910.60
2018-04-19T04:47:39.843Z,102912.89
2018-04-19T04:50:05.602Z,102905.41
2018-04-19T04:52:31.340Z,102908.52
2018-04-19T04:54:57.080Z,102909.38
2018-04-19T04:57:22.819Z,102913.34
2018-04-19T04:59:48.579Z,102906.33
2018-04-19T05:02:14.325Z,102913.41
2018-04-19T05:04:40.063Z,102912.97
2018-04-19T05:07:05.824Z,102909.91
2018-04-19T05:09:31.571Z,102919.61
2018-04-19T05:11:57.325Z,102915.27
2018-04-19T05:14:23.158Z,102913.05
2018-04-19T05:16:48.826Z,102917.46
2018-04-19T05:19:14.552Z,102910.92
2018-04-19T05:21:40.300Z,102913.59
2018-04-19T05:24:06.031Z,102910.11
2018-04-19T05:26:31.776Z,102913.25
2018-04-19T05:28:57.522Z,102915.91
2018-04-19T05:31:23.272Z,102919.45
2018-04-19T05:33:49.008Z,102920.81
2018-04-19T05:36:14.744Z,102912.92
2018-04-19T05:38:40.502Z,102911.19
2018-04-19T05:41:06.240Z,102910.33
2018-04-19T05:43:31.964Z,102920.04
2018-04-19T05:45:57.708Z,102917.84
2018-04-19T05:48:23.454Z,102912.52
2018-04-19T05:50:49.221Z,102914.25
2018-04-19T05:53:14.960Z,102917.35
2018-04-19T05:55:40.691Z,102918.17
2018-04-19T05:58:13.497Z,102919.05
2018-04-19T06:00:39.244Z,102911.48
2018-04-19T06:03:05.039Z,102918.08
2018-04-19T06:05:30.712Z,102918.47
2018-04-19T06:07:56.474Z,102927.30
2018-04-19T06:10:22.210Z,102928.06
2018-04-19T06:12:47.966Z,102918.68
2018-04-19T06:15:13.715Z,102921.73
2018-04-19T06:17:39.463Z,102925.13
2018-04-19T06:20:05.210Z,102931.30
2018-04-19T06:22:30.969Z,102926.30
2018-04-19T06:24:56.761Z,102928.03
2018-04-19T06:27:22.456Z,102930.93
2018-04-19T06:29:48.188Z,102925.47
2018-04-19T06:32:13.940Z,102925.37
2018-04-19T06:34:39.691Z,102928.87
2018-04-19T06:37:05.428Z,102925.91
2018-04-19T06:39:31.173Z,102918.58
2018-04-19T06:41:56.921Z,102926.85
2018-04-19T06:44:22.682Z,102929.84
2018-04-19T06:46:48.421Z,102931.98
2018-04-19T06:49:14.156Z,102932.98
2018-04-19T06:51:39.892Z,102930.11
2018-04-19T06:54:05.636Z,102937.41
2018-04-19T06:56:31.364Z,102928.31
2018-04-19T06:58:57.098Z,102936.98
2018-04-19T07:01:22.832Z,102939.45
2018-04-19T07:03:48.576Z,102931.39
2018-04-19T07:06:14.303Z,102930.33
2018-04-19T07:08:40.062Z,102929.23
2018-04-19T07:11:05.804Z,102923.89
2018-04-19T07:13:31.546Z,102928.86
2018-04-19T07:15:57.284Z,102927.08
2018-04-19T07:18:23.024Z,102930.83
2018-04-19T07:20:48.760Z,102925.19
2018-04-19T07:23:14.507Z,102922.11
2018-04-19T07:25:40.236Z,102925.69
2018-04-19T07:28:13.004Z,102917.34
2018-04-19T07:30:38.755Z,102918.60
2018-04-19T07:33:04.488Z,102915.80
2018-04-19T07:35:30.233Z,102922.86
2018-04-19T07:37:55.965Z,102916.63
2018-04-19T07:40:21.720Z,102917.22
2018-04-19T07:42:47.446Z,102916.70
2018-04-19T07:45:13.206Z,102919.55
2018-04-19T07:47:38.940Z,102916.39
2018-04-19T07:50:04.712Z,102913.56
2018-04-19T07:52:30.462Z,102917.93
2018-04-19T07:54:56.210Z,102911.56
2018-04-19T07:57:21.951Z,102914.25
2018-04-19T07:59:47.704Z,102913.11
2018-04-19T08:02:13.448Z,102913.47
2018-04-19T08:04:39.200Z,102918.59
2018-04-19T08:07:04.929Z,102911.88
2018-04-19T08:09:30.707Z,102918.98
2018-04-19T08:11:56.449Z,102920.55
2018-04-19T08:14:22.180Z,102917.66
2018-04-19T08:16:47.937Z,102918.03
2018-04-19T08:19:13.673Z,102919.67
2018-04-19T08:21:39.419Z,102914.98
2018-04-19T08:24:05.154Z,102915.88
2018-04-19T08:26:30.916Z,102920.20
2018-04-19T08:28:56.647Z,102912.05
2018-04-19T08:31:22.417Z,102915.88
2018-04-19T08:33:48.146Z,102910.24
2018-04-19T08:36:13.908Z,102912.78
2018-04-19T08:38:39.665Z,102902.34
2018-04-19T08:41:05.415Z,102912.14
2018-04-19T08:43:31.144Z,102905.63
2018-04-19T08:45:56.892Z,102901.42
2018-04-19T08:48:22.637Z,102906.75
2018-04-19T08:50:48.388Z,102906.21
2018-04-19T08:53:14.134Z,102900.40
2018-04-19T08:55:39.868Z,102899.57
2018-04-19T08:58:05.604Z,102896.76
2018-04-19T09:00:31.324Z,102896.82
2018-04-19T09:02:57.106Z,102896.30
2018-04-19T09:05:22.837Z,102890.78
2018-04-19T09:07:48.581Z,102891.31
2018-04-19T09:10:14.330Z,102895.23
2018-04-19T09:12:40.089Z,102902.75
2018-04-19T09:15:05.824Z,102897.52
2018-04-19T09:17:31.584Z,102898.48
2018-04-19T09:19:57.328Z,102895.28
2018-04-19T09:22:23.148Z,102894.81
2018-04-19T09:24:48.836Z,102889.64
2018-04-19T09:27:14.568Z,102895.65
2018-04-19T09:29:40.319Z,102896.26
2018-04-19T09:32:06.061Z,102900.59
2018-04-19T09:34:31.827Z,102892.27
2018-04-19T09:36:57.568Z,102891.36
2018-04-19T09:39:23.306Z,102888.66
2018-04-19T09:41:49.057Z,102892.34
2018-04-19T09:44:14.814Z,102887.77
2018-04-19T09:46:40.608Z,102888.00
2018-04-19T09:49:06.320Z,102893.92
2018-04-19T09:51:32.071Z,102886.41
2018-04-19T09:53:57.863Z,102883.98
2018-04-19T09:56:23.572Z,102877.76
2018-04-19T09:59:01.735Z,102876.54
2018-04-19T10:01:27.481Z,102874.04
2018-04-19T10:03:53.243Z,102876.51
2018-04-19T10:06:18.969Z,102874.83
2018-04-19T10:08:44.720Z,102872.80
2018-04-19T10:11:10.470Z,102868.05
2018-04-19T10:13:36.207Z,102864.80
2018-04-19T10:16:02.028Z,102870.09
2018-04-19T10:18:27.707Z,102863.59
2018-04-19T10:20:53.472Z,102866.87
2018-04-19T10:23:19.218Z,102867.06
2018-04-19T10:25:44.973Z,102856.87
2018-04-19T10:28:10.710Z,102858.98
2018-04-19T10:30:36.449Z,102857.58
2018-04-19T10:33:02.218Z,102851.16
2018-04-19T10:35:27.972Z,102850.88
2018-04-19T10:37:53.712Z,102850.89
2018-04-19T10:40:19.461Z,102847.45
2018-04-19T10:42:45.203Z,102838.06
2018-04-19T10:45:10.955Z,102841.39
2018-04-19T10:47:36.700Z,102831.34
2018-04-19T10:50:02.452Z,102832.86
2018-04-19T10:52:28.193Z,102832.32
2018-04-19T10:54:53.958Z,102823.41
2018-04-19T10:57:19.695Z,102818.66
2018-04-19T10:59:45.441Z,102818.42
2018-04-19T11:02:11.193Z,102815.89
2018-04-19T11:04:36.942Z,102811.53
2018-04-19T11:07:02.704Z,102813.73
2018-04-19T11:09:28.449Z,102810.55
2018-04-19T11:11:54.205Z,102804.62
2018-04-19T11:14:19.947Z,102799.58
2018-04-19T11:16:45.709Z,102805.33
2018-04-19T11:19:11.461Z,102795.48
2018-04-19T11:21:37.205Z,102798.98
2018-04-19T11:24:02.940Z,102793.97
2018-04-19T11:26:28.681Z,102791.46
2018-04-19T11:28:54.432Z,102793.94
2018-04-19T11:31:20.193Z,102790.84
2018-04-19T11:33:45.929Z,102786.43
2018-04-19T11:36:11.682Z,102783.59
2018-04-19T11:38:37.411Z,102784.75
2018-04-19T11:41:03.163Z,102776.37
2018-04-19T11:43:28.922Z,102774.86
2018-04-19T11:45:54.661Z,102770.30
2018-04-19T11:48:20.412Z,102769.28
2018-04-19T11:50:46.148Z,102770.59
2018-04-19T11:53:11.908Z,102772.28
2018-04-19T11:55:37.656Z,102769.66
2018-04-19T11:58:03.393Z,102770.20
2018-04-19T12:00:29.139Z,102766.38
2018-04-19T12:02:54.892Z,102766.84
2018-04-19T12:05:20.644Z,102761.58
2018-04-19T12:07:46.396Z,102761.66
2018-04-19T12:10:12.145Z,102767.20
2018-04-19T12:12:37.892Z,102773.61
2018-04-19T12:15:03.638Z,102764.94
2018-04-19T12:17:29.393Z,102766.59
2018-04-19T12:19:55.148Z,102757.55
2018-04-19T12:22:20.887Z,102763.23
2018-04-19T12:24:46.649Z,102757.23
2018-04-19T12:27:12.400Z,102756.88
2018-04-19T12:29:38.165Z,102758.91
2018-04-19T12:32:03.917Z,102756.94
2018-04-19T12:34:29.662Z,102754.20
2018-04-19T12:36:55.415Z,102753.89
2018-04-19T12:39:21.148Z,102749.38
2018-04-19T12:41:46.896Z,102755.60
2018-04-19T12:44:12.660Z,102750.42
2018-04-19T12:46:38.418Z,102753.47
2018-04-19T12:49:04.169Z,102750.93
2018-04-19T12:51:29.928Z,102752.75
2018-04-19T12:53:55.677Z,102751.22
2018-04-19T12:56:21.407Z,102751.58
2018-04-19T12:58:47.165Z,102741.80
2018-04-19T13:01:12.916Z,102736.01
2018-04-19T13:03:38.664Z,102732.27
2018-04-19T13:06:04.451Z,102735.84
2018-04-19T13:08:30.204Z,102735.77
2018-04-19T13:10:55.948Z,102732.48
2018-04-19T13:13:21.688Z,102727.99
2018-04-19T13:15:47.438Z,102726.95
2018-04-19T13:18:13.201Z,102723.14
2018-04-19T13:20:38.944Z,102721.97
2018-04-19T13:23:04.702Z,102712.30
2018-04-19T13:25:30.477Z,102717.17
2018-04-19T13:27:56.237Z,102710.89
2018-04-19T13:30:21.990Z,102712.91
2018-04-19T13:32:47.741Z,102713.12
2018-04-19T13:35:13.500Z,102704.02
2018-04-19T13:37:39.247Z,102706.16
2018-04-19T13:40:05.008Z,102697.13
2018-04-19T13:42:30.759Z,102694.61
2018-04-19T13:44:56.523Z,102692.86
2018-04-19T13:47:22.270Z,102689.98
2018-04-19T13:49:48.038Z,102692.30
2018-04-19T13:52:13.783Z,102687.84
2018-04-19T13:54:39.551Z,102688.61
2018-04-19T13:57:05.298Z,102680.95
2018-04-19T13:59:31.048Z,102684.16
2018-04-19T14:01:56.807Z,102683.33
2018-04-19T14:04:22.540Z,102676.56
2018-04-19T14:06:48.279Z,102674.77
2018-04-19T14:09:14.033Z,102674.05
2018-04-19T14:11:39.780Z,102666.22
2018-04-19T14:14:05.525Z,102671.43
2018-04-19T14:16:31.265Z,102675.98
2018-04-19T14:18:57.028Z,102668.38
2018-04-19T14:21:22.782Z,102669.05
2018-04-19T14:23:48.525Z,102660.20
2018-04-19T14:26:14.291Z,102666.02
2018-04-19T14:28:40.038Z,102661.63
2018-04-19T14:31:05.793Z,102656.37
2018-04-19T14:33:31.544Z,102652.69
2018-04-19T14:35:57.295Z,102654.03
2018-04-19T14:38:23.063Z,102649.14
2018-04-19T14:40:48.808Z,102648.95
2018-04-19T14:43:14.557Z,102655.73
2018-04-19T14:45:40.347Z,102652.08
2018-04-19T14:48:06.093Z,102651.98
2018-04-19T14:50:31.868Z,102648.83
2018-04-19T14:52:57.604Z,102648.36
2018-04-19T14:55:23.367Z,102646.34
2018-04-19T14:57:49.894Z,102640.81
2018-04-19T15:00:17.729Z,102638.88
2018-04-19T15:02:43.630Z,102637.47
2018-04-19T15:05:09.374Z,102639.95
2018-04-19T15:07:35.131Z,102639.11
2018-04-19T15:10:00.895Z,102641.91
2018-04-19T15:12:26.645Z,102634.59
2018-04-19T15:14:52.392Z,102636.23
2018-04-19T15:17:18.137Z,102636.44
2018-04-19T15:19:43.890Z,102628.59
2018-04-19T15:22:09.632Z,102628.00
2018-04-19T15:24:35.386Z,102624.23
2018-04-19T15:27:01.133Z,102622.59
2018-04-19T15:29:26.882Z,102622.67
2018-04-19T15:31:52.659Z,102624.69
2018-04-19T15:34:18.392Z,102617.75
2018-04-19T15:36:44.185Z,102622.52
2018-04-19T15:39:09.920Z,102620.23
2018-04-19T15:41:35.704Z,102616.30
2018-04-19T15:44:01.452Z,102618.42
2018-04-19T15:46:27.196Z,102611.38
2018-04-19T15:48:52.936Z,102611.32
2018-04-19T15:51:18.688Z,102615.63
2018-04-19T15:53:44.429Z,102611.08
2018-04-19T15:56:10.172Z,102605.64
2018-04-19T15:58:35.914Z,102600.05
2018-04-19T16:01:01.664Z,102603.63
2018-04-19T16:03:27.407Z,102606.02
2018-04-19T16:05:53.180Z,102601.41
2018-04-19T16:08:18.933Z,102600.14
2018-04-19T16:10:44.690Z,102598.80
2018-04-19T16:13:10.431Z,102599.69
2018-04-19T16:15:36.177Z,102598.33
2018-04-19T16:18:01.928Z,102595.77
2018-04-19T16:20:27.685Z,102592.47
2018-04-19T16:22:53.414Z,102586.20
2018-04-19T16:25:19.165Z,102587.73
2018-04-19T16:27:44.905Z,102590.80
2018-04-19T16:30:10.653Z,102584.46
2018-04-19T16:32:36.404Z,102586.60
2018-04-19T16:35:02.213Z,102586.03
2018-04-19T16:37:28.023Z,102582.37
2018-04-19T16:39:53.716Z,102579.56
2018-04-19T16:42:19.472Z,102578.87
2018-04-19T16:44:45.265Z,102585.59
2018-04-19T16:47:10.971Z,102576.88
2018-04-19T16:49:37.141Z,102577.28
2018-04-19T16:52:02.904Z,102574.50
2018-04-19T16:54:28.642Z,102572.17
2018-04-19T16:56:54.409Z,102570.73
2018-04-19T16:59:20.148Z,102567.32
2018-04-19T17:01:45.921Z,102559.98
2018-04-19T17:04:11.654Z,102564.20
2018-04-19T17:06:37.431Z,102569.24
2018-04-19T17:09:03.185Z,102562.60
2018-04-19T17:11:28.932Z,102564.05
2018-04-19T17:13:54.828Z,102567.81
2018-04-19T17:16:20.598Z,102561.73
2018-04-19T17:18:46.327Z,102560.53
2018-04-19T17:21:12.072Z,102563.14
2018-04-19T17:23:37.820Z,102564.11
2018-04-19T17:26:03.587Z,102563.08
2018-04-19T17:28:29.323Z,102562.08
2018-04-19T17:30:55.081Z,102557.78
2018-04-19T17:33:20.825Z,102553.05
2018-04-19T17:35:46.574Z,102562.23
2018-04-19T17:38:12.313Z,102557.30
2018-04-19T17:40:38.059Z,102556.00
2018-04-19T17:43:03.811Z,102552.07
2018-04-19T17:45:29.561Z,102551.14
2018-04-19T17:47:55.302Z,102549.82
2018-04-19T17:50:21.049Z,102548.63
2018-04-19T17:52:46.859Z,102546.34
2018-04-19T17:55:12.586Z,102543.21
2018-04-19T17:57:38.339Z,102541.27
2018-04-19T18:00:04.082Z,102540.55
2018-04-19T18:02:29.836Z,102541.06
2018-04-19T18:04:55.573Z,102541.39
2018-04-19T18:07:21.329Z,102539.85
2018-04-19T18:09:47.065Z,102534.05
2018-04-19T18:12:12.830Z,102537.72
2018-04-19T18:14:38.593Z,102532.19
2018-04-19T18:17:04.354Z,102537.03
2018-04-19T18:19:30.100Z,102533.97
2018-04-19T18:21:55.849Z,102536.52
2018-04-19T18:24:21.582Z,102538.98
2018-04-19T18:26:47.341Z,102535.30
2018-04-19T18:29:13.082Z,102542.41
2018-04-19T18:31:38.844Z,102537.98
2018-04-19T18:34:04.572Z,102547.64
2018-04-19T18:36:30.325Z,102541.51
2018-04-19T18:38:56.076Z,102545.88
2018-04-19T18:41:21.820Z,102548.95
2018-04-19T18:43:48.463Z,102547.20
2018-04-19T18:46:14.276Z,102540.89
2018-04-19T18:48:40.033Z,102546.95
2018-04-19T18:51:05.797Z,102544.87
2018-04-19T18:53:31.548Z,102540.86
2018-04-19T18:55:57.277Z,102546.70
2018-04-19T18:58:23.057Z,102541.09
2018-04-19T19:00:48.785Z,102544.98
2018-04-19T19:03:14.528Z,102542.89
2018-04-19T19:05:40.270Z,102538.81
2018-04-19T19:08:06.025Z,102543.14
2018-04-19T19:10:31.772Z,102545.95
2018-04-19T19:12:57.521Z,102538.09
2018-04-19T19:18:46.652Z,102537.42
2018-04-19T19:21:12.396Z,102549.63
2018-04-19T19:23:38.157Z,102550.20
2018-04-19T19:26:03.905Z,102541.59
2018-04-19T19:28:29.648Z,102541.83
2018-04-19T19:30:55.371Z,102539.16
2018-04-19T19:33:21.124Z,102544.14
2018-04-19T19:35:46.869Z,102538.63
2018-04-19T19:38:12.602Z,102542.35
2018-04-19T19:40:38.345Z,102538.42
2018-04-19T19:43:04.092Z,102547.16
2018-04-19T19:45:29.894Z,102549.06
2018-04-19T19:47:55.601Z,102552.66
2018-04-19T19:50:21.349Z,102549.63
2018-04-19T19:52:47.117Z,102547.72
2018-04-19T19:55:12.861Z,102542.98
2018-04-19T19:57:38.637Z,102548.69
2018-04-19T20:00:04.391Z,102548.80
2018-04-19T20:02:30.250Z,102544.20
2018-04-19T20:04:56.117Z,102548.73
2018-04-19T20:07:21.869Z,102548.36
2018-04-19T20:09:47.610Z,102539.56
2018-04-19T20:12:13.369Z,102535.59
2018-04-19T20:14:39.166Z,102538.52
2018-04-19T20:17:05.109Z,102531.98
2018-04-19T20:19:30.913Z,102537.77
2018-04-19T20:21:56.623Z,102534.55
2018-04-19T20:24:22.396Z,102528.46
2018-04-19T20:26:48.129Z,102530.38
2018-04-19T20:29:13.875Z,102528.37
2018-04-19T20:31:39.615Z,102526.00
2018-04-19T20:34:05.361Z,102525.73
2018-04-19T20:36:31.091Z,102523.73
2018-04-19T20:38:57.853Z,102516.61
2018-04-19T20:41:24.458Z,102514.45
2018-04-19T20:43:50.229Z,102517.88
2018-04-19T20:46:15.984Z,102513.72
2018-04-19T20:48:41.730Z,102515.31
2018-04-19T20:51:07.642Z,102510.52
2018-04-19T20:53:33.552Z,102514.14
2018-04-19T20:55:59.291Z,102512.87
2018-04-19T20:58:25.417Z,102507.06
2018-04-19T21:00:51.205Z,102502.97
2018-04-19T21:03:24.023Z,102503.79
2018-04-19T21:05:49.992Z,102500.39
2018-04-19T21:08:15.760Z,102499.23
2018-04-19T21:10:41.613Z,102496.63
2018-04-19T21:13:07.414Z,102496.01
2018-04-19T21:15:33.144Z,102493.14
2018-04-19T21:17:58.900Z,102491.66
2018-04-19T21:20:24.849Z,102493.31
2018-04-19T21:22:50.680Z,102489.75
2018-04-19T21:25:16.412Z,102487.95
2018-04-19T21:27:42.173Z,102482.61
2018-04-19T21:30:07.932Z,102480.36
2018-04-19T21:32:33.675Z,102487.00
2018-04-19T21:34:59.419Z,102475.98
2018-04-19T21:37:25.152Z,102473.29
2018-04-19T21:39:50.891Z,102477.45
2018-04-19T21:42:16.623Z,102472.19
2018-04-19T21:44:42.367Z,102470.10
2018-04-19T21:47:08.087Z,102459.44
2018-04-19T21:49:33.845Z,102469.73
2018-04-19T21:51:59.602Z,102464.52
2018-04-19T21:54:25.354Z,102458.72
2018-04-19T21:56:51.096Z,102461.68
2018-04-19T21:59:16.842Z,102453.27
2018-04-19T22:01:42.650Z,102449.69
2018-04-19T22:04:08.356Z,102447.53
2018-04-19T22:06:34.096Z,102441.59
2018-04-19T22:08:59.846Z,102443.50
2018-04-19T22:11:25.597Z,102439.33
2018-04-19T22:13:51.332Z,102441.13
2018-04-19T22:16:17.072Z,102444.95
2018-04-19T22:18:42.816Z,102442.31
2018-04-19T22:21:08.545Z,102439.25
2018-04-19T22:23:34.300Z,102444.13
2018-04-19T22:26:00.048Z,102439.34
2018-04-19T22:28:25.804Z,102438.60
2018-04-19T22:30:51.561Z,102430.23
2018-04-19T22:33:17.318Z,102433.48
2018-04-19T22:35:43.053Z,102430.13
2018-04-19T22:38:08.798Z,102433.30
2018-04-19T22:40:34.540Z,102426.75
2018-04-19T22:43:00.668Z,102427.70
2018-04-19T22:45:26.823Z,102427.72
2018-04-19T22:47:52.933Z,102422.84
2018-04-19T22:50:19.058Z,102423.34
2018-04-19T22:52:45.185Z,102420.24
2018-04-19T22:55:10.984Z,102416.74
2018-04-19T22:57:36.736Z,102412.80
2018-04-19T23:00:02.492Z,102411.96
2018-04-19T23:02:28.229Z,102418.31
2018-04-19T23:04:53.968Z,102419.25
2018-04-19T23:07:19.688Z,102420.72
2018-04-19T23:09:45.433Z,102419.77
2018-04-19T23:12:11.177Z,102417.59
2018-04-19T23:14:36.913Z,102418.55
2018-04-19T23:17:02.661Z,102415.08
2018-04-19T23:19:28.400Z,102406.68
2018-04-19T23:21:54.128Z,102412.98
2018-04-19T23:24:19.872Z,102412.96
2018-04-19T23:26:45.599Z,102411.13
2018-04-19T23:29:11.348Z,102406.73
2018-04-19T23:31:37.092Z,102408.53
2018-04-19T23:34:02.842Z,102401.78
2018-04-19T23:36:28.567Z,102403.42
2018-04-19T23:38:54.323Z,102394.51
2018-04-19T23:41:20.057Z,102393.16
2018-04-19T23:43:45.797Z,102382.14
2018-04-19T23:46:11.559Z,102387.12
2018-04-19T23:48:37.292Z,102388.89
2018-04-19T23:51:03.048Z,102381.06
2018-04-19T23:53:28.798Z,102379.27
2018-04-19T23:55:54.552Z,102378.32
2018-04-19T23:58:20.288Z,102376.16
